sensor_id;sensor_type;location;lat;lon;timestamp;P1;durP1;ratioP1;P2;durP2;ratioP2
35961;SDS011;22044;48.298;10.008;2024-02-21T00:02:16;8.87;;;3.97;;
35961;SDS011;22044;48.298;10.008;2024-02-21T00:05:02;11.90;;;5.17;;
35961;SDS011;22044;48.298;10.008;2024-02-21T00:07:49;9.07;;;4.67;;
35961;SDS011;22044;48.298;10.008;2024-02-21T00:10:36;12.10;;;5.00;;
35961;SDS011;22044;48.298;10.008;2024-02-21T00:13:22;10.00;;;4.70;;
35961;SDS011;22044;48.298;10.008;2024-02-21T00:16:08;12.67;;;4.97;;
35961;SDS011;22044;48.298;10.008;2024-02-21T00:18:54;8.97;;;4.13;;
35961;SDS011;22044;48.298;10.008;2024-02-21T00:21:40;9.93;;;4.47;;
35961;SDS011;22044;48.298;10.008;2024-02-21T00:24:25;10.23;;;5.10;;
35961;SDS011;22044;48.298;10.008;2024-02-21T00:27:13;12.87;;;5.30;;
35961;SDS011;22044;48.298;10.008;2024-02-21T00:29:58;8.57;;;4.60;;
35961;SDS011;22044;48.298;10.008;2024-02-21T00:32:44;11.53;;;5.17;;
35961;SDS011;22044;48.298;10.008;2024-02-21T00:35:30;12.27;;;4.97;;
35961;SDS011;22044;48.298;10.008;2024-02-21T00:38:16;11.17;;;5.40;;
35961;SDS011;22044;48.298;10.008;2024-02-21T00:41:02;8.43;;;5.07;;
35961;SDS011;22044;48.298;10.008;2024-02-21T00:43:49;10.97;;;4.83;;
35961;SDS011;22044;48.298;10.008;2024-02-21T00:46:35;6.57;;;4.23;;
35961;SDS011;22044;48.298;10.008;2024-02-21T00:49:22;9.63;;;4.43;;
35961;SDS011;22044;48.298;10.008;2024-02-21T00:52:08;7.90;;;4.90;;
35961;SDS011;22044;48.298;10.008;2024-02-21T00:54:55;9.83;;;4.63;;
35961;SDS011;22044;48.298;10.008;2024-02-21T00:58:07;12.43;;;4.70;;
35961;SDS011;22044;48.298;10.008;2024-02-21T01:00:54;8.97;;;4.93;;
35961;SDS011;22044;48.298;10.008;2024-02-21T01:03:40;9.20;;;4.57;;
35961;SDS011;22044;48.298;10.008;2024-02-21T01:06:25;13.57;;;5.23;;
35961;SDS011;22044;48.298;10.008;2024-02-21T01:09:11;7.47;;;4.30;;
35961;SDS011;22044;48.298;10.008;2024-02-21T01:11:58;7.30;;;4.30;;
35961;SDS011;22044;48.298;10.008;2024-02-21T01:14:44;10.63;;;5.07;;
35961;SDS011;22044;48.298;10.008;2024-02-21T01:17:31;8.10;;;4.50;;
35961;SDS011;22044;48.298;10.008;2024-02-21T01:20:17;10.43;;;5.10;;
35961;SDS011;22044;48.298;10.008;2024-02-21T01:23:03;9.13;;;4.67;;
35961;SDS011;22044;48.298;10.008;2024-02-21T01:25:49;9.90;;;5.03;;
35961;SDS011;22044;48.298;10.008;2024-02-21T01:28:35;10.13;;;5.77;;
35961;SDS011;22044;48.298;10.008;2024-02-21T01:31:21;8.40;;;4.77;;
35961;SDS011;22044;48.298;10.008;2024-02-21T01:34:08;9.57;;;4.50;;
35961;SDS011;22044;48.298;10.008;2024-02-21T01:36:54;9.00;;;4.33;;
35961;SDS011;22044;48.298;10.008;2024-02-21T01:39:39;12.63;;;4.70;;
35961;SDS011;22044;48.298;10.008;2024-02-21T01:42:25;8.33;;;4.53;;
35961;SDS011;22044;48.298;10.008;2024-02-21T01:45:11;8.40;;;4.37;;
35961;SDS011;22044;48.298;10.008;2024-02-21T01:47:56;9.57;;;4.70;;
35961;SDS011;22044;48.298;10.008;2024-02-21T01:50:43;8.93;;;4.90;;
35961;SDS011;22044;48.298;10.008;2024-02-21T01:53:30;8.63;;;4.63;;
35961;SDS011;22044;48.298;10.008;2024-02-21T01:56:19;10.63;;;5.37;;
35961;SDS011;22044;48.298;10.008;2024-02-21T01:59:05;8.67;;;4.60;;
35961;SDS011;22044;48.298;10.008;2024-02-21T02:01:51;8.30;;;4.40;;
35961;SDS011;22044;48.298;10.008;2024-02-21T02:04:37;8.77;;;4.80;;
35961;SDS011;22044;48.298;10.008;2024-02-21T02:07:25;9.97;;;4.43;;
35961;SDS011;22044;48.298;10.008;2024-02-21T02:10:11;8.50;;;4.50;;
35961;SDS011;22044;48.298;10.008;2024-02-21T02:12:57;12.57;;;4.73;;
35961;SDS011;22044;48.298;10.008;2024-02-21T02:15:43;10.27;;;4.73;;
35961;SDS011;22044;48.298;10.008;2024-02-21T02:18:30;9.33;;;4.30;;
35961;SDS011;22044;48.298;10.008;2024-02-21T02:21:21;7.73;;;4.13;;
35961;SDS011;22044;48.298;10.008;2024-02-21T02:24:13;10.60;;;5.03;;
35961;SDS011;22044;48.298;10.008;2024-02-21T02:26:59;8.70;;;4.80;;
35961;SDS011;22044;48.298;10.008;2024-02-21T02:29:44;9.27;;;4.20;;
35961;SDS011;22044;48.298;10.008;2024-02-21T02:32:30;9.43;;;4.77;;
35961;SDS011;22044;48.298;10.008;2024-02-21T02:35:16;8.57;;;4.67;;
35961;SDS011;22044;48.298;10.008;2024-02-21T02:38:02;9.73;;;5.20;;
35961;SDS011;22044;48.298;10.008;2024-02-21T02:40:49;11.77;;;5.23;;
35961;SDS011;22044;48.298;10.008;2024-02-21T02:43:35;10.53;;;5.00;;
35961;SDS011;22044;48.298;10.008;2024-02-21T02:46:21;9.97;;;5.40;;
35961;SDS011;22044;48.298;10.008;2024-02-21T02:49:07;8.93;;;5.27;;
35961;SDS011;22044;48.298;10.008;2024-02-21T02:51:53;9.10;;;5.20;;
35961;SDS011;22044;48.298;10.008;2024-02-21T02:54:39;10.47;;;4.90;;
35961;SDS011;22044;48.298;10.008;2024-02-21T02:57:26;7.20;;;5.13;;
35961;SDS011;22044;48.298;10.008;2024-02-21T03:00:12;9.70;;;5.40;;
35961;SDS011;22044;48.298;10.008;2024-02-21T03:02:59;7.07;;;4.63;;
35961;SDS011;22044;48.298;10.008;2024-02-21T03:05:45;9.70;;;4.70;;
35961;SDS011;22044;48.298;10.008;2024-02-21T03:08:31;11.30;;;5.23;;
35961;SDS011;22044;48.298;10.008;2024-02-21T03:11:18;8.90;;;5.07;;
35961;SDS011;22044;48.298;10.008;2024-02-21T03:14:05;7.87;;;4.50;;
35961;SDS011;22044;48.298;10.008;2024-02-21T03:16:52;11.53;;;4.90;;
35961;SDS011;22044;48.298;10.008;2024-02-21T03:19:37;9.13;;;5.33;;
35961;SDS011;22044;48.298;10.008;2024-02-21T03:22:23;9.80;;;4.60;;
35961;SDS011;22044;48.298;10.008;2024-02-21T03:25:08;8.73;;;4.70;;
35961;SDS011;22044;48.298;10.008;2024-02-21T03:27:55;7.73;;;4.60;;
35961;SDS011;22044;48.298;10.008;2024-02-21T03:30:42;9.57;;;5.30;;
35961;SDS011;22044;48.298;10.008;2024-02-21T03:33:27;12.27;;;5.27;;
35961;SDS011;22044;48.298;10.008;2024-02-21T03:36:13;8.90;;;4.80;;
35961;SDS011;22044;48.298;10.008;2024-02-21T03:38:59;11.07;;;4.70;;
35961;SDS011;22044;48.298;10.008;2024-02-21T03:41:45;7.37;;;4.60;;
35961;SDS011;22044;48.298;10.008;2024-02-21T03:44:30;9.17;;;5.20;;
35961;SDS011;22044;48.298;10.008;2024-02-21T03:47:18;5.60;;;4.07;;
35961;SDS011;22044;48.298;10.008;2024-02-21T03:50:05;9.60;;;4.87;;
35961;SDS011;22044;48.298;10.008;2024-02-21T03:52:51;9.23;;;4.00;;
35961;SDS011;22044;48.298;10.008;2024-02-21T03:55:37;11.83;;;4.57;;
35961;SDS011;22044;48.298;10.008;2024-02-21T03:58:22;7.83;;;4.60;;
35961;SDS011;22044;48.298;10.008;2024-02-21T04:01:08;11.27;;;4.27;;
35961;SDS011;22044;48.298;10.008;2024-02-21T04:03:55;8.70;;;4.60;;
35961;SDS011;22044;48.298;10.008;2024-02-21T04:06:45;10.10;;;4.20;;
35961;SDS011;22044;48.298;10.008;2024-02-21T04:09:32;10.10;;;4.80;;
35961;SDS011;22044;48.298;10.008;2024-02-21T04:12:18;10.23;;;4.20;;
35961;SDS011;22044;48.298;10.008;2024-02-21T04:15:03;7.23;;;4.77;;
35961;SDS011;22044;48.298;10.008;2024-02-21T04:17:49;7.67;;;4.33;;
35961;SDS011;22044;48.298;10.008;2024-02-21T04:20:38;6.77;;;4.40;;
35961;SDS011;22044;48.298;10.008;2024-02-21T04:23:24;6.70;;;4.10;;
35961;SDS011;22044;48.298;10.008;2024-02-21T04:26:12;8.80;;;4.13;;
35961;SDS011;22044;48.298;10.008;2024-02-21T04:28:58;8.03;;;4.67;;
35961;SDS011;22044;48.298;10.008;2024-02-21T04:31:44;7.87;;;4.00;;
35961;SDS011;22044;48.298;10.008;2024-02-21T04:34:30;8.27;;;4.53;;
35961;SDS011;22044;48.298;10.008;2024-02-21T04:37:17;7.53;;;3.90;;
35961;SDS011;22044;48.298;10.008;2024-02-21T04:40:03;7.47;;;4.03;;
35961;SDS011;22044;48.298;10.008;2024-02-21T04:42:49;9.97;;;4.07;;
35961;SDS011;22044;48.298;10.008;2024-02-21T04:45:35;10.93;;;3.83;;
35961;SDS011;22044;48.298;10.008;2024-02-21T04:48:20;10.60;;;3.73;;
35961;SDS011;22044;48.298;10.008;2024-02-21T04:51:06;9.40;;;3.87;;
35961;SDS011;22044;48.298;10.008;2024-02-21T04:53:53;5.10;;;3.47;;
35961;SDS011;22044;48.298;10.008;2024-02-21T04:56:39;8.17;;;3.93;;
35961;SDS011;22044;48.298;10.008;2024-02-21T04:59:24;6.70;;;3.70;;
35961;SDS011;22044;48.298;10.008;2024-02-21T05:02:10;6.47;;;3.67;;
35961;SDS011;22044;48.298;10.008;2024-02-21T05:04:56;8.20;;;4.07;;
35961;SDS011;22044;48.298;10.008;2024-02-21T05:07:42;6.37;;;3.50;;
35961;SDS011;22044;48.298;10.008;2024-02-21T05:10:29;6.43;;;4.07;;
35961;SDS011;22044;48.298;10.008;2024-02-21T05:13:15;10.73;;;3.70;;
35961;SDS011;22044;48.298;10.008;2024-02-21T05:16:00;5.70;;;3.63;;
35961;SDS011;22044;48.298;10.008;2024-02-21T05:18:46;7.53;;;3.87;;
35961;SDS011;22044;48.298;10.008;2024-02-21T05:21:32;7.03;;;3.57;;
35961;SDS011;22044;48.298;10.008;2024-02-21T05:24:18;7.27;;;3.43;;
35961;SDS011;22044;48.298;10.008;2024-02-21T05:27:06;5.70;;;3.80;;
35961;SDS011;22044;48.298;10.008;2024-02-21T05:29:51;5.03;;;3.47;;
35961;SDS011;22044;48.298;10.008;2024-02-21T05:32:38;6.80;;;3.27;;
35961;SDS011;22044;48.298;10.008;2024-02-21T05:35:26;6.73;;;2.90;;
35961;SDS011;22044;48.298;10.008;2024-02-21T05:38:12;4.17;;;3.37;;
35961;SDS011;22044;48.298;10.008;2024-02-21T05:40:58;4.70;;;2.90;;
35961;SDS011;22044;48.298;10.008;2024-02-21T05:43:45;6.50;;;3.33;;
35961;SDS011;22044;48.298;10.008;2024-02-21T05:46:31;7.00;;;3.10;;
35961;SDS011;22044;48.298;10.008;2024-02-21T05:49:16;5.63;;;3.20;;
35961;SDS011;22044;48.298;10.008;2024-02-21T05:52:02;4.40;;;3.30;;
35961;SDS011;22044;48.298;10.008;2024-02-21T05:54:50;8.93;;;4.07;;
35961;SDS011;22044;48.298;10.008;2024-02-21T05:57:36;4.70;;;3.17;;
35961;SDS011;22044;48.298;10.008;2024-02-21T06:00:23;9.77;;;4.87;;
35961;SDS011;22044;48.298;10.008;2024-02-21T06:03:09;8.43;;;4.70;;
35961;SDS011;22044;48.298;10.008;2024-02-21T06:05:54;7.20;;;4.47;;
35961;SDS011;22044;48.298;10.008;2024-02-21T06:08:41;6.20;;;4.00;;
35961;SDS011;22044;48.298;10.008;2024-02-21T06:11:27;6.77;;;3.63;;
35961;SDS011;22044;48.298;10.008;2024-02-21T06:14:12;5.30;;;3.47;;
35961;SDS011;22044;48.298;10.008;2024-02-21T06:16:59;5.73;;;3.57;;
35961;SDS011;22044;48.298;10.008;2024-02-21T06:19:46;5.67;;;3.67;;
35961;SDS011;22044;48.298;10.008;2024-02-21T06:22:31;7.70;;;3.87;;
35961;SDS011;22044;48.298;10.008;2024-02-21T06:25:17;8.07;;;4.90;;
35961;SDS011;22044;48.298;10.008;2024-02-21T06:28:03;5.80;;;3.50;;
35961;SDS011;22044;48.298;10.008;2024-02-21T06:30:49;9.70;;;3.83;;
35961;SDS011;22044;48.298;10.008;2024-02-21T06:33:36;7.23;;;3.50;;
35961;SDS011;22044;48.298;10.008;2024-02-21T06:36:22;7.37;;;3.80;;
35961;SDS011;22044;48.298;10.008;2024-02-21T06:39:08;6.53;;;4.00;;
35961;SDS011;22044;48.298;10.008;2024-02-21T06:41:55;5.10;;;3.40;;
35961;SDS011;22044;48.298;10.008;2024-02-21T06:44:40;5.83;;;3.63;;
35961;SDS011;22044;48.298;10.008;2024-02-21T06:47:26;6.97;;;3.57;;
35961;SDS011;22044;48.298;10.008;2024-02-21T06:50:13;10.90;;;3.70;;
35961;SDS011;22044;48.298;10.008;2024-02-21T06:53:01;9.23;;;5.00;;
35961;SDS011;22044;48.298;10.008;2024-02-21T06:55:47;7.73;;;5.00;;
35961;SDS011;22044;48.298;10.008;2024-02-21T06:58:33;7.67;;;4.07;;
35961;SDS011;22044;48.298;10.008;2024-02-21T07:01:22;6.87;;;4.30;;
35961;SDS011;22044;48.298;10.008;2024-02-21T07:04:10;5.73;;;3.77;;
35961;SDS011;22044;48.298;10.008;2024-02-21T07:06:57;5.20;;;3.77;;
35961;SDS011;22044;48.298;10.008;2024-02-21T07:09:43;5.03;;;3.87;;
35961;SDS011;22044;48.298;10.008;2024-02-21T07:12:32;5.90;;;3.67;;
35961;SDS011;22044;48.298;10.008;2024-02-21T07:15:19;4.60;;;3.47;;
35961;SDS011;22044;48.298;10.008;2024-02-21T07:18:05;7.17;;;3.83;;
35961;SDS011;22044;48.298;10.008;2024-02-21T07:20:50;5.57;;;3.90;;
35961;SDS011;22044;48.298;10.008;2024-02-21T07:23:38;4.23;;;3.83;;
35961;SDS011;22044;48.298;10.008;2024-02-21T07:26:26;8.47;;;4.37;;
35961;SDS011;22044;48.298;10.008;2024-02-21T07:29:12;5.80;;;4.13;;
35961;SDS011;22044;48.298;10.008;2024-02-21T07:31:58;7.93;;;4.53;;
35961;SDS011;22044;48.298;10.008;2024-02-21T07:34:44;13.60;;;7.63;;
35961;SDS011;22044;48.298;10.008;2024-02-21T07:37:29;7.03;;;5.03;;
35961;SDS011;22044;48.298;10.008;2024-02-21T07:40:17;21.73;;;11.77;;
35961;SDS011;22044;48.298;10.008;2024-02-21T07:43:05;28.87;;;14.97;;
35961;SDS011;22044;48.298;10.008;2024-02-21T07:45:51;13.77;;;9.27;;
35961;SDS011;22044;48.298;10.008;2024-02-21T07:48:37;42.10;;;19.83;;
35961;SDS011;22044;48.298;10.008;2024-02-21T07:51:27;6.20;;;4.50;;
35961;SDS011;22044;48.298;10.008;2024-02-21T07:54:12;9.70;;;5.50;;
35961;SDS011;22044;48.298;10.008;2024-02-21T07:56:59;6.57;;;4.17;;
35961;SDS011;22044;48.298;10.008;2024-02-21T07:59:47;6.90;;;4.37;;
35961;SDS011;22044;48.298;10.008;2024-02-21T08:02:33;15.43;;;8.80;;
35961;SDS011;22044;48.298;10.008;2024-02-21T08:05:19;6.00;;;4.23;;
35961;SDS011;22044;48.298;10.008;2024-02-21T08:08:05;7.60;;;4.47;;
35961;SDS011;22044;48.298;10.008;2024-02-21T08:10:52;6.13;;;4.00;;
35961;SDS011;22044;48.298;10.008;2024-02-21T08:13:39;6.77;;;3.73;;
35961;SDS011;22044;48.298;10.008;2024-02-21T08:16:25;6.03;;;3.70;;
35961;SDS011;22044;48.298;10.008;2024-02-21T08:19:12;6.07;;;3.30;;
35961;SDS011;22044;48.298;10.008;2024-02-21T08:21:58;3.87;;;3.50;;
35961;SDS011;22044;48.298;10.008;2024-02-21T08:24:44;4.37;;;3.43;;
35961;SDS011;22044;48.298;10.008;2024-02-21T08:27:30;6.03;;;3.87;;
35961;SDS011;22044;48.298;10.008;2024-02-21T08:30:17;6.77;;;3.30;;
35961;SDS011;22044;48.298;10.008;2024-02-21T08:33:03;4.83;;;2.97;;
35961;SDS011;22044;48.298;10.008;2024-02-21T08:36:18;6.33;;;3.13;;
35961;SDS011;22044;48.298;10.008;2024-02-21T08:39:05;3.90;;;2.57;;
35961;SDS011;22044;48.298;10.008;2024-02-21T08:41:51;3.47;;;2.30;;
35961;SDS011;22044;48.298;10.008;2024-02-21T08:44:37;3.77;;;2.37;;
35961;SDS011;22044;48.298;10.008;2024-02-21T08:47:28;3.20;;;2.40;;
35961;SDS011;22044;48.298;10.008;2024-02-21T08:50:13;4.37;;;2.23;;
35961;SDS011;22044;48.298;10.008;2024-02-21T08:53:02;6.87;;;2.73;;
35961;SDS011;22044;48.298;10.008;2024-02-21T08:55:48;5.50;;;2.50;;
35961;SDS011;22044;48.298;10.008;2024-02-21T08:58:34;2.93;;;2.20;;
35961;SDS011;22044;48.298;10.008;2024-02-21T09:01:21;3.37;;;2.10;;
35961;SDS011;22044;48.298;10.008;2024-02-21T09:04:11;3.37;;;1.93;;
35961;SDS011;22044;48.298;10.008;2024-02-21T09:06:57;3.17;;;2.00;;
35961;SDS011;22044;48.298;10.008;2024-02-21T09:09:43;3.27;;;2.20;;
35961;SDS011;22044;48.298;10.008;2024-02-21T09:12:32;4.67;;;2.33;;
35961;SDS011;22044;48.298;10.008;2024-02-21T09:15:18;2.73;;;2.17;;
35961;SDS011;22044;48.298;10.008;2024-02-21T09:18:04;4.53;;;2.57;;
35961;SDS011;22044;48.298;10.008;2024-02-21T09:20:52;4.57;;;2.57;;
35961;SDS011;22044;48.298;10.008;2024-02-21T09:23:37;3.80;;;2.27;;
35961;SDS011;22044;48.298;10.008;2024-02-21T09:26:25;3.03;;;2.20;;
35961;SDS011;22044;48.298;10.008;2024-02-21T09:29:10;5.20;;;2.20;;
35961;SDS011;22044;48.298;10.008;2024-02-21T09:31:56;6.43;;;2.50;;
35961;SDS011;22044;48.298;10.008;2024-02-21T09:34:42;3.53;;;2.30;;
35961;SDS011;22044;48.298;10.008;2024-02-21T09:37:29;4.57;;;2.47;;
35961;SDS011;22044;48.298;10.008;2024-02-21T09:40:15;3.53;;;2.17;;
35961;SDS011;22044;48.298;10.008;2024-02-21T09:43:02;3.23;;;2.00;;
35961;SDS011;22044;48.298;10.008;2024-02-21T09:45:50;4.53;;;2.40;;
35961;SDS011;22044;48.298;10.008;2024-02-21T09:48:42;4.60;;;2.40;;
35961;SDS011;22044;48.298;10.008;2024-02-21T09:51:44;2.83;;;2.20;;
35961;SDS011;22044;48.298;10.008;2024-02-21T09:54:34;5.30;;;2.20;;
35961;SDS011;22044;48.298;10.008;2024-02-21T09:57:20;3.93;;;2.17;;
35961;SDS011;22044;48.298;10.008;2024-02-21T10:00:09;3.53;;;2.40;;
35961;SDS011;22044;48.298;10.008;2024-02-21T10:02:58;5.07;;;2.43;;
35961;SDS011;22044;48.298;10.008;2024-02-21T10:05:46;2.40;;;1.90;;
35961;SDS011;22044;48.298;10.008;2024-02-21T10:08:33;4.83;;;2.27;;
35961;SDS011;22044;48.298;10.008;2024-02-21T10:11:23;5.83;;;2.53;;
35961;SDS011;22044;48.298;10.008;2024-02-21T10:14:12;3.63;;;2.20;;
35961;SDS011;22044;48.298;10.008;2024-02-21T10:17:02;6.33;;;1.93;;
35961;SDS011;22044;48.298;10.008;2024-02-21T10:19:53;4.97;;;2.40;;
35961;SDS011;22044;48.298;10.008;2024-02-21T10:22:38;4.97;;;2.53;;
35961;SDS011;22044;48.298;10.008;2024-02-21T10:25:24;4.20;;;2.20;;
35961;SDS011;22044;48.298;10.008;2024-02-21T10:28:13;3.50;;;2.33;;
35961;SDS011;22044;48.298;10.008;2024-02-21T10:31:00;3.10;;;2.13;;
35961;SDS011;22044;48.298;10.008;2024-02-21T10:33:53;3.70;;;2.40;;
35961;SDS011;22044;48.298;10.008;2024-02-21T10:36:39;4.80;;;2.00;;
35961;SDS011;22044;48.298;10.008;2024-02-21T10:39:25;3.90;;;2.43;;
35961;SDS011;22044;48.298;10.008;2024-02-21T10:42:11;4.47;;;2.37;;
35961;SDS011;22044;48.298;10.008;2024-02-21T10:45:00;3.03;;;1.90;;
35961;SDS011;22044;48.298;10.008;2024-02-21T10:47:48;3.77;;;2.50;;
35961;SDS011;22044;48.298;10.008;2024-02-21T10:50:46;4.97;;;2.10;;
35961;SDS011;22044;48.298;10.008;2024-02-21T10:53:41;2.67;;;2.03;;
35961;SDS011;22044;48.298;10.008;2024-02-21T10:56:32;4.07;;;2.20;;
35961;SDS011;22044;48.298;10.008;2024-02-21T10:59:19;2.77;;;2.13;;
35961;SDS011;22044;48.298;10.008;2024-02-21T11:02:08;3.97;;;2.13;;
35961;SDS011;22044;48.298;10.008;2024-02-21T11:04:54;6.53;;;2.20;;
35961;SDS011;22044;48.298;10.008;2024-02-21T11:07:40;4.40;;;2.07;;
35961;SDS011;22044;48.298;10.008;2024-02-21T11:10:26;4.50;;;2.00;;
35961;SDS011;22044;48.298;10.008;2024-02-21T11:13:12;3.60;;;1.90;;
35961;SDS011;22044;48.298;10.008;2024-02-21T11:16:05;4.77;;;2.10;;
35961;SDS011;22044;48.298;10.008;2024-02-21T11:18:54;2.90;;;1.87;;
35961;SDS011;22044;48.298;10.008;2024-02-21T11:21:50;5.17;;;2.00;;
35961;SDS011;22044;48.298;10.008;2024-02-21T11:24:37;3.47;;;2.00;;
35961;SDS011;22044;48.298;10.008;2024-02-21T11:27:23;4.03;;;2.03;;
35961;SDS011;22044;48.298;10.008;2024-02-21T11:30:11;3.90;;;1.97;;
35961;SDS011;22044;48.298;10.008;2024-02-21T11:32:59;3.57;;;2.07;;
35961;SDS011;22044;48.298;10.008;2024-02-21T11:35:48;5.23;;;2.27;;
35961;SDS011;22044;48.298;10.008;2024-02-21T11:38:35;3.93;;;1.83;;
35961;SDS011;22044;48.298;10.008;2024-02-21T11:41:21;2.13;;;1.80;;
35961;SDS011;22044;48.298;10.008;2024-02-21T11:44:07;4.07;;;1.80;;
35961;SDS011;22044;48.298;10.008;2024-02-21T11:46:52;5.90;;;1.80;;
35961;SDS011;22044;48.298;10.008;2024-02-21T11:49:43;2.67;;;2.00;;
35961;SDS011;22044;48.298;10.008;2024-02-21T11:52:34;3.03;;;2.10;;
35961;SDS011;22044;48.298;10.008;2024-02-21T11:55:20;4.57;;;1.87;;
35961;SDS011;22044;48.298;10.008;2024-02-21T11:58:06;2.23;;;1.83;;
35961;SDS011;22044;48.298;10.008;2024-02-21T12:00:52;4.50;;;2.07;;
35961;SDS011;22044;48.298;10.008;2024-02-21T12:03:39;2.67;;;2.07;;
35961;SDS011;22044;48.298;10.008;2024-02-21T12:06:25;1.83;;;1.60;;
35961;SDS011;22044;48.298;10.008;2024-02-21T12:09:15;3.30;;;2.07;;
35961;SDS011;22044;48.298;10.008;2024-02-21T12:12:01;2.33;;;1.80;;
35961;SDS011;22044;48.298;10.008;2024-02-21T12:14:54;2.00;;;1.77;;
35961;SDS011;22044;48.298;10.008;2024-02-21T12:17:42;3.47;;;2.30;;
35961;SDS011;22044;48.298;10.008;2024-02-21T12:20:28;2.37;;;1.70;;
35961;SDS011;22044;48.298;10.008;2024-02-21T12:23:18;3.57;;;2.30;;
35961;SDS011;22044;48.298;10.008;2024-02-21T12:26:05;4.03;;;2.00;;
35961;SDS011;22044;48.298;10.008;2024-02-21T12:28:52;2.33;;;1.80;;
35961;SDS011;22044;48.298;10.008;2024-02-21T12:31:39;2.00;;;1.80;;
35961;SDS011;22044;48.298;10.008;2024-02-21T12:34:25;2.67;;;1.67;;
35961;SDS011;22044;48.298;10.008;2024-02-21T12:37:11;4.77;;;1.70;;
35961;SDS011;22044;48.298;10.008;2024-02-21T12:39:59;1.77;;;1.53;;
35961;SDS011;22044;48.298;10.008;2024-02-21T12:42:47;1.80;;;1.50;;
35961;SDS011;22044;48.298;10.008;2024-02-21T12:45:33;3.20;;;2.17;;
35961;SDS011;22044;48.298;10.008;2024-02-21T12:48:18;1.70;;;1.53;;
35961;SDS011;22044;48.298;10.008;2024-02-21T12:51:06;3.10;;;1.27;;
35961;SDS011;22044;48.298;10.008;2024-02-21T12:53:53;3.20;;;1.60;;
35961;SDS011;22044;48.298;10.008;2024-02-21T12:56:39;2.80;;;1.40;;
35961;SDS011;22044;48.298;10.008;2024-02-21T12:59:27;2.73;;;1.53;;
35961;SDS011;22044;48.298;10.008;2024-02-21T13:02:16;1.57;;;1.20;;
35961;SDS011;22044;48.298;10.008;2024-02-21T13:05:04;2.23;;;1.17;;
35961;SDS011;22044;48.298;10.008;2024-02-21T13:07:51;2.00;;;1.30;;
35961;SDS011;22044;48.298;10.008;2024-02-21T13:10:38;2.73;;;1.20;;
35961;SDS011;22044;48.298;10.008;2024-02-21T13:13:25;3.27;;;1.50;;
35961;SDS011;22044;48.298;10.008;2024-02-21T13:16:12;1.97;;;1.27;;
35961;SDS011;22044;48.298;10.008;2024-02-21T13:18:58;2.47;;;1.03;;
35961;SDS011;22044;48.298;10.008;2024-02-21T13:21:45;1.87;;;1.30;;
35961;SDS011;22044;48.298;10.008;2024-02-21T13:24:31;3.17;;;1.30;;
35961;SDS011;22044;48.298;10.008;2024-02-21T13:27:19;1.87;;;1.13;;
35961;SDS011;22044;48.298;10.008;2024-02-21T13:30:06;2.70;;;1.30;;
35961;SDS011;22044;48.298;10.008;2024-02-21T13:32:55;2.13;;;1.40;;
35961;SDS011;22044;48.298;10.008;2024-02-21T13:35:41;2.20;;;1.13;;
35961;SDS011;22044;48.298;10.008;2024-02-21T13:38:27;2.03;;;1.70;;
35961;SDS011;22044;48.298;10.008;2024-02-21T13:41:13;1.40;;;1.30;;
35961;SDS011;22044;48.298;10.008;2024-02-21T13:43:59;2.03;;;1.30;;
35961;SDS011;22044;48.298;10.008;2024-02-21T13:46:45;2.83;;;1.47;;
35961;SDS011;22044;48.298;10.008;2024-02-21T13:49:32;2.47;;;1.20;;
35961;SDS011;22044;48.298;10.008;2024-02-21T13:52:18;1.50;;;1.40;;
35961;SDS011;22044;48.298;10.008;2024-02-21T13:55:05;2.07;;;1.40;;
35961;SDS011;22044;48.298;10.008;2024-02-21T13:57:52;1.97;;;1.40;;
35961;SDS011;22044;48.298;10.008;2024-02-21T14:00:38;2.17;;;1.40;;
35961;SDS011;22044;48.298;10.008;2024-02-21T14:03:27;4.73;;;1.50;;
35961;SDS011;22044;48.298;10.008;2024-02-21T14:06:14;1.43;;;1.23;;
35961;SDS011;22044;48.298;10.008;2024-02-21T14:09:01;1.73;;;1.27;;
35961;SDS011;22044;48.298;10.008;2024-02-21T14:11:47;2.30;;;1.97;;
35961;SDS011;22044;48.298;10.008;2024-02-21T14:14:33;3.50;;;2.87;;
35961;SDS011;22044;48.298;10.008;2024-02-21T14:17:25;4.40;;;3.10;;
35961;SDS011;22044;48.298;10.008;2024-02-21T14:20:11;4.00;;;1.97;;
35961;SDS011;22044;48.298;10.008;2024-02-21T14:22:59;2.97;;;2.60;;
35961;SDS011;22044;48.298;10.008;2024-02-21T14:25:45;4.80;;;2.20;;
35961;SDS011;22044;48.298;10.008;2024-02-21T14:28:57;4.60;;;3.20;;
35961;SDS011;22044;48.298;10.008;2024-02-21T14:32:08;4.03;;;3.43;;
35961;SDS011;22044;48.298;10.008;2024-02-21T14:34:54;3.50;;;2.40;;
35961;SDS011;22044;48.298;10.008;2024-02-21T14:37:40;7.20;;;4.30;;
35961;SDS011;22044;48.298;10.008;2024-02-21T14:40:27;4.93;;;3.03;;
35961;SDS011;22044;48.298;10.008;2024-02-21T14:43:13;6.27;;;3.90;;
35961;SDS011;22044;48.298;10.008;2024-02-21T14:46:01;4.93;;;3.13;;
35961;SDS011;22044;48.298;10.008;2024-02-21T14:48:48;2.80;;;2.20;;
35961;SDS011;22044;48.298;10.008;2024-02-21T14:51:34;1.97;;;1.70;;
35961;SDS011;22044;48.298;10.008;2024-02-21T14:54:20;9.50;;;3.50;;
35961;SDS011;22044;48.298;10.008;2024-02-21T14:57:08;5.00;;;3.50;;
35961;SDS011;22044;48.298;10.008;2024-02-21T14:59:54;4.60;;;3.07;;
35961;SDS011;22044;48.298;10.008;2024-02-21T15:02:42;5.40;;;4.00;;
35961;SDS011;22044;48.298;10.008;2024-02-21T15:05:29;3.17;;;1.80;;
35961;SDS011;22044;48.298;10.008;2024-02-21T15:08:17;3.17;;;1.80;;
35961;SDS011;22044;48.298;10.008;2024-02-21T15:11:03;7.67;;;4.47;;
35961;SDS011;22044;48.298;10.008;2024-02-21T15:13:51;3.77;;;1.97;;
35961;SDS011;22044;48.298;10.008;2024-02-21T15:16:36;7.43;;;3.57;;
35961;SDS011;22044;48.298;10.008;2024-02-21T15:19:23;7.13;;;3.00;;
35961;SDS011;22044;48.298;10.008;2024-02-21T15:22:09;3.83;;;2.40;;
35961;SDS011;22044;48.298;10.008;2024-02-21T15:24:56;3.27;;;2.20;;
35961;SDS011;22044;48.298;10.008;2024-02-21T15:27:42;4.43;;;2.17;;
35961;SDS011;22044;48.298;10.008;2024-02-21T15:30:29;3.43;;;1.80;;
35961;SDS011;22044;48.298;10.008;2024-02-21T15:33:16;2.13;;;1.60;;
35961;SDS011;22044;48.298;10.008;2024-02-21T15:36:02;1.80;;;1.50;;
35961;SDS011;22044;48.298;10.008;2024-02-21T15:38:48;2.07;;;1.50;;
35961;SDS011;22044;48.298;10.008;2024-02-21T15:41:34;2.77;;;1.50;;
35961;SDS011;22044;48.298;10.008;2024-02-21T15:44:20;1.63;;;1.50;;
35961;SDS011;22044;48.298;10.008;2024-02-21T15:47:07;7.37;;;6.47;;
35961;SDS011;22044;48.298;10.008;2024-02-21T15:49:53;5.07;;;4.20;;
35961;SDS011;22044;48.298;10.008;2024-02-21T15:52:39;23.33;;;21.07;;
35961;SDS011;22044;48.298;10.008;2024-02-21T15:55:24;12.03;;;10.13;;
35961;SDS011;22044;48.298;10.008;2024-02-21T15:58:12;5.13;;;3.93;;
35961;SDS011;22044;48.298;10.008;2024-02-21T16:00:57;13.00;;;5.03;;
35961;SDS011;22044;48.298;10.008;2024-02-21T16:03:46;14.73;;;6.67;;
35961;SDS011;22044;48.298;10.008;2024-02-21T16:06:32;10.57;;;5.73;;
35961;SDS011;22044;48.298;10.008;2024-02-21T16:09:18;6.33;;;4.47;;
35961;SDS011;22044;48.298;10.008;2024-02-21T16:12:04;8.03;;;4.30;;
35961;SDS011;22044;48.298;10.008;2024-02-21T16:14:52;9.53;;;5.83;;
35961;SDS011;22044;48.298;10.008;2024-02-21T16:17:38;6.97;;;4.67;;
35961;SDS011;22044;48.298;10.008;2024-02-21T16:20:25;7.57;;;5.23;;
35961;SDS011;22044;48.298;10.008;2024-02-21T16:23:12;7.30;;;4.50;;
35961;SDS011;22044;48.298;10.008;2024-02-21T16:25:58;6.50;;;3.13;;
35961;SDS011;22044;48.298;10.008;2024-02-21T16:28:45;2.90;;;2.40;;
35961;SDS011;22044;48.298;10.008;2024-02-21T16:31:30;2.80;;;1.73;;